createdAt,value
2018-04-13T00:01:05.752Z,14.90
2018-04-13T00:03:33.193Z,15.00
2018-04-13T00:06:01.386Z,14.90
2018-04-13T00:08:28.842Z,14.90
2018-04-13T00:10:56.273Z,14.90
2018-04-13T00:13:24.468Z,14.80
2018-04-13T00:15:51.915Z,14.70
2018-04-13T00:18:19.356Z,14.70
2018-04-13T00:20:47.544Z,14.70
2018-04-13T00:23:15.753Z,14.70
2018-04-13T00:25:43.196Z,14.70
2018-04-13T00:28:10.635Z,14.70
2018-04-13T00:30:38.831Z,14.60
2018-04-13T00:33:06.288Z,14.60
2018-04-13T00:35:33.709Z,14.70
2018-04-13T00:38:01.909Z,14.60
2018-04-13T00:40:29.348Z,14.60
2018-04-13T00:42:57.554Z,14.50
2018-04-13T00:45:25.008Z,14.50
2018-04-13T00:47:52.420Z,14.50
2018-04-13T00:50:20.677Z,14.50
2018-04-13T00:53:00.070Z,14.50
2018-04-13T00:55:27.512Z,14.60
2018-04-13T00:57:54.956Z,14.60
2018-04-13T01:00:23.148Z,14.70
2018-04-13T01:02:50.636Z,14.60
2018-04-13T01:05:18.077Z,14.60
2018-04-13T01:07:45.520Z,14.70
2018-04-13T01:10:12.948Z,14.70
2018-04-13T01:12:41.157Z,14.60
2018-04-13T01:15:08.588Z,14.60
2018-04-13T01:17:36.780Z,14.60
2018-04-13T01:20:04.221Z,14.60
2018-04-13T01:22:32.423Z,14.60
2018-04-13T01:24:59.901Z,14.60
2018-04-13T01:27:27.342Z,14.60
2018-04-13T01:29:54.780Z,14.60
2018-04-13T01:32:22.205Z,14.60
2018-04-13T01:34:50.422Z,14.60
2018-04-13T01:37:17.874Z,14.60
2018-04-13T01:39:45.307Z,14.60
2018-04-13T01:42:13.512Z,14.50
2018-04-13T01:44:40.936Z,14.50
2018-04-13T01:47:08.387Z,14.50
2018-04-13T01:49:36.568Z,14.50
2018-04-13T01:52:04.762Z,14.50
2018-04-13T01:54:32.196Z,14.40
2018-04-13T01:57:00.413Z,14.50
2018-04-13T01:59:27.835Z,14.50
2018-04-13T02:01:55.313Z,14.50
2018-04-13T02:04:22.729Z,14.50
2018-04-13T02:06:51.938Z,14.60
2018-04-13T02:09:20.128Z,14.60
2018-04-13T02:11:47.561Z,14.50
2018-04-13T02:14:15.901Z,14.60
2018-04-13T02:16:43.356Z,14.50
2018-04-13T02:19:10.776Z,14.50
2018-04-13T02:21:38.460Z,14.50
2018-04-13T02:24:05.893Z,14.60
2018-04-13T02:26:33.400Z,14.50
2018-04-13T02:29:00.841Z,14.50
2018-04-13T02:31:28.285Z,14.50
2018-04-13T02:33:55.720Z,14.50
2018-04-13T02:36:23.148Z,14.50
2018-04-13T02:38:51.350Z,14.50
2018-04-13T02:41:18.780Z,14.40
2018-04-13T02:43:46.988Z,14.40
2018-04-13T02:46:14.438Z,14.40
2018-04-13T02:48:41.908Z,14.40
2018-04-13T02:51:09.332Z,14.40
2018-04-13T02:53:37.844Z,14.40
2018-04-13T02:56:05.277Z,14.40
2018-04-13T02:58:33.474Z,14.40
2018-04-13T03:01:00.917Z,14.30
2018-04-13T03:03:28.340Z,14.40
2018-04-13T03:05:55.861Z,14.30
2018-04-13T03:08:23.293Z,14.30
2018-04-13T03:10:50.736Z,14.40
2018-04-13T03:13:18.173Z,14.30
2018-04-13T03:15:45.614Z,14.30
2018-04-13T03:18:13.808Z,14.30
2018-04-13T03:20:42.015Z,14.30
2018-04-13T03:23:09.457Z,14.20
2018-04-13T03:25:36.901Z,14.30
2018-04-13T03:28:05.143Z,14.20
2018-04-13T03:30:32.668Z,14.20
2018-04-13T03:33:00.080Z,14.30
2018-04-13T03:35:28.285Z,14.20
2018-04-13T03:37:55.726Z,14.10
2018-04-13T03:40:23.932Z,14.20
2018-04-13T03:42:51.400Z,14.10
2018-04-13T03:45:18.847Z,14.20
2018-04-13T03:47:46.309Z,14.10
2018-04-13T03:50:13.752Z,14.10
2018-04-13T03:52:41.176Z,14.10
2018-04-13T03:55:09.384Z,14.10
2018-04-13T03:57:36.820Z,14.10
2018-04-13T04:00:04.248Z,14.10
2018-04-13T04:02:31.720Z,14.10
2018-04-13T04:04:59.928Z,14.00
2018-04-13T04:07:27.371Z,14.00
2018-04-13T04:09:54.808Z,14.00
2018-04-13T04:12:23.016Z,14.00
2018-04-13T04:14:50.451Z,13.90
2018-04-13T04:17:17.880Z,14.00
2018-04-13T04:19:58.036Z,14.00
2018-04-13T04:22:38.255Z,14.00
2018-04-13T04:25:18.001Z,14.00
2018-04-13T04:27:45.452Z,14.00
2018-04-13T04:30:12.898Z,13.90
2018-04-13T04:32:40.345Z,13.90
2018-04-13T04:35:07.790Z,13.80
2018-04-13T04:37:35.225Z,13.80
2018-04-13T04:40:03.425Z,13.80
2018-04-13T04:42:31.017Z,13.70
2018-04-13T04:44:58.460Z,13.80
2018-04-13T04:47:25.892Z,13.80
2018-04-13T04:49:53.335Z,13.70
2018-04-13T04:52:21.529Z,13.80
2018-04-13T04:54:48.978Z,13.70
2018-04-13T04:57:17.189Z,13.70
2018-04-13T04:59:44.637Z,13.60
2018-04-13T05:02:12.082Z,13.60
2018-04-13T05:04:39.519Z,13.60
2018-04-13T05:07:07.719Z,13.50
2018-04-13T05:09:35.165Z,13.50
2018-04-13T05:12:02.619Z,13.50
2018-04-13T05:14:30.044Z,13.50
2018-04-13T05:16:58.262Z,13.40
2018-04-13T05:19:25.708Z,13.40
2018-04-13T05:21:53.199Z,13.40
2018-04-13T05:24:20.671Z,13.50
2018-04-13T05:26:48.111Z,13.40
2018-04-13T05:29:15.575Z,13.40
2018-04-13T05:31:43.330Z,13.40
2018-04-13T05:34:10.851Z,13.30
2018-04-13T05:36:38.257Z,13.30
2018-04-13T05:39:06.376Z,13.30
2018-04-13T05:41:33.821Z,13.40
2018-04-13T05:44:02.030Z,13.40
2018-04-13T05:46:29.454Z,13.30
2018-04-13T05:48:57.665Z,13.30
2018-04-13T05:51:25.117Z,13.30
2018-04-13T05:53:52.559Z,13.30
2018-04-13T05:56:20.019Z,13.30
2018-04-13T05:58:47.457Z,13.30
2018-04-13T06:01:15.669Z,13.40
2018-04-13T06:03:43.116Z,13.30
2018-04-13T06:06:10.546Z,13.40
2018-04-13T06:08:38.780Z,13.60
2018-04-13T06:11:06.214Z,13.50
2018-04-13T06:13:33.734Z,13.80
2018-04-13T06:16:01.128Z,14.10
2018-04-13T06:18:29.560Z,14.20
2018-04-13T06:20:57.772Z,14.50
2018-04-13T06:23:25.212Z,14.50
2018-04-13T06:25:52.640Z,14.50
2018-04-13T06:28:20.858Z,14.50
2018-04-13T06:30:48.292Z,14.40
2018-04-13T06:33:15.733Z,14.50
2018-04-13T06:35:43.960Z,14.50
2018-04-13T06:38:11.411Z,14.50
2018-04-13T06:40:39.188Z,14.50
2018-04-13T06:43:06.617Z,14.50
2018-04-13T06:45:34.045Z,14.60
2018-04-13T06:48:02.265Z,14.60
2018-04-13T06:50:29.697Z,14.60
2018-04-13T06:52:57.189Z,14.70
2018-04-13T06:55:24.627Z,14.70
2018-04-13T06:57:52.057Z,14.70
2018-04-13T07:00:20.357Z,14.80
2018-04-13T07:02:47.773Z,14.70
2018-04-13T07:05:16.008Z,14.90
2018-04-13T07:07:43.460Z,14.80
2018-04-13T07:10:10.885Z,15.00
2018-04-13T07:12:38.329Z,15.00
2018-04-13T07:15:06.547Z,15.20
2018-04-13T07:17:33.972Z,15.10
2018-04-13T07:20:01.407Z,15.20
2018-04-13T07:22:29.618Z,15.50
2018-04-13T07:24:57.061Z,15.40
2018-04-13T07:27:25.256Z,15.90
2018-04-13T07:29:52.700Z,15.80
2018-04-13T07:32:20.136Z,16.20
2018-04-13T07:34:48.340Z,16.50
2018-04-13T07:37:16.114Z,16.50
2018-04-13T07:39:43.218Z,16.70
2018-04-13T07:42:11.421Z,16.90
2018-04-13T07:44:38.864Z,16.90
2018-04-13T07:47:06.439Z,17.00
2018-04-13T07:49:33.853Z,17.40
2018-04-13T07:52:02.045Z,17.60
2018-04-13T07:54:29.484Z,17.50
2018-04-13T07:56:57.688Z,17.30
2018-04-13T07:59:25.605Z,17.20
2018-04-13T08:01:53.567Z,16.90
2018-04-13T08:04:20.757Z,16.80
2018-04-13T08:06:49.020Z,16.60
2018-04-13T08:09:16.376Z,16.60
2018-04-13T08:11:44.610Z,16.50
2018-04-13T08:14:12.048Z,16.50
2018-04-13T08:16:39.477Z,16.50
2018-04-13T08:19:07.683Z,16.40
2018-04-13T08:21:35.116Z,16.30
2018-04-13T08:24:02.562Z,16.50
2018-04-13T08:26:30.761Z,16.90
2018-04-13T08:28:58.186Z,16.80
2018-04-13T08:31:26.398Z,17.60
2018-04-13T08:33:54.076Z,17.50
2018-04-13T08:36:21.509Z,17.90
2018-04-13T08:38:48.986Z,18.40
2018-04-13T08:41:16.429Z,18.60
2018-04-13T08:43:43.852Z,18.50
2018-04-13T08:46:12.060Z,18.30
2018-04-13T08:48:39.536Z,18.20
2018-04-13T08:51:07.836Z,18.00
2018-04-13T08:53:35.256Z,17.90
2018-04-13T08:56:02.699Z,18.00
2018-04-13T08:58:30.181Z,17.90
2018-04-13T09:00:57.649Z,17.90
2018-04-13T09:03:25.075Z,18.00
2018-04-13T09:05:52.480Z,18.10
2018-04-13T09:08:19.926Z,18.20
2018-04-13T09:10:47.356Z,18.30
2018-04-13T09:13:14.800Z,18.50
2018-04-13T09:15:42.228Z,18.90
2018-04-13T09:18:10.458Z,19.70
2018-04-13T09:20:37.866Z,19.70
2018-04-13T09:23:05.310Z,19.80
2018-04-13T09:25:33.509Z,19.70
2018-04-13T09:28:00.937Z,19.70
2018-04-13T09:30:28.368Z,19.60
2018-04-13T09:32:55.796Z,19.40
2018-04-13T09:35:23.568Z,19.20
2018-04-13T09:37:50.992Z,19.00
2018-04-13T09:40:18.473Z,18.70
2018-04-13T09:42:46.123Z,18.50
2018-04-13T09:45:13.569Z,18.30
2018-04-13T09:47:41.000Z,18.10
2018-04-13T09:50:09.209Z,17.80
2018-04-13T09:52:36.644Z,17.70
2018-04-13T09:55:04.089Z,17.80
2018-04-13T09:57:32.494Z,17.90
2018-04-13T09:59:59.926Z,17.80
2018-04-13T10:02:33.989Z,18.10
2018-04-13T10:05:01.416Z,18.00
2018-04-13T10:10:02.858Z,18.50
2018-04-13T10:12:31.067Z,19.20
2018-04-13T10:14:58.509Z,19.10
2018-04-13T10:17:25.935Z,19.10
2018-04-13T10:19:53.373Z,19.20
2018-04-13T10:22:20.827Z,19.90
2018-04-13T10:24:48.258Z,20.70
2018-04-13T10:27:15.681Z,21.30
2018-04-13T10:29:43.126Z,21.50
2018-04-13T10:32:11.338Z,21.40
2018-04-13T10:34:38.777Z,21.30
2018-04-13T10:37:06.469Z,21.40
2018-04-13T10:39:33.916Z,21.30
2018-04-13T10:42:01.361Z,21.50
2018-04-13T10:44:28.801Z,21.40
2018-04-13T10:46:56.283Z,21.70
2018-04-13T10:49:23.735Z,21.60
2018-04-13T10:51:51.164Z,21.50
2018-04-13T10:54:19.369Z,21.10
2018-04-13T10:56:46.813Z,21.10
2018-04-13T10:59:14.257Z,20.60
2018-04-13T11:01:41.688Z,20.20
2018-04-13T11:04:09.169Z,20.30
2018-04-13T11:06:37.371Z,21.30
2018-04-13T11:09:05.644Z,21.30
2018-04-13T11:11:33.075Z,22.00
2018-04-13T11:14:01.276Z,23.90
2018-04-13T11:16:28.741Z,23.80
2018-04-13T11:18:56.193Z,24.70
2018-04-13T11:21:23.615Z,24.50
2018-04-13T11:23:51.821Z,24.90
2018-04-13T11:26:19.275Z,24.80
2018-04-13T11:28:46.863Z,24.60
2018-04-13T11:31:14.314Z,24.00
2018-04-13T11:33:41.749Z,23.10
2018-04-13T11:36:09.188Z,23.00
2018-04-13T11:38:36.626Z,23.40
2018-04-13T11:41:04.833Z,23.50
2018-04-13T11:43:32.258Z,23.40
2018-04-13T11:46:00.469Z,21.90
2018-04-13T11:48:27.980Z,21.80
2018-04-13T11:50:56.423Z,20.30
2018-04-13T11:53:23.846Z,20.20
2018-04-13T11:55:51.269Z,19.70
2018-04-13T11:58:18.792Z,19.40
2018-04-13T12:00:46.244Z,19.00
2018-04-13T12:03:13.894Z,18.70
2018-04-13T12:05:41.382Z,18.50
2018-04-13T12:08:09.496Z,18.40
2018-04-13T12:10:36.950Z,18.30
2018-04-13T12:13:05.142Z,18.40
2018-04-13T12:15:32.596Z,18.40
2018-04-13T12:18:00.026Z,18.40
2018-04-13T12:20:28.239Z,18.30
2018-04-13T12:22:55.673Z,18.20
2018-04-13T12:25:23.155Z,18.10
2018-04-13T12:27:51.363Z,17.80
2018-04-13T12:30:18.800Z,17.70
2018-04-13T12:32:46.238Z,17.70
2018-04-13T12:35:13.679Z,17.70
2018-04-13T12:37:41.105Z,17.70
2018-04-13T12:40:08.559Z,17.70
2018-04-13T12:42:35.984Z,17.70
2018-04-13T12:45:03.424Z,17.70
2018-04-13T12:47:31.157Z,17.80
2018-04-13T12:49:59.412Z,17.90
2018-04-13T12:52:26.792Z,17.80
2018-04-13T12:54:54.496Z,17.90
2018-04-13T12:57:22.433Z,18.00
2018-04-13T12:59:49.918Z,18.00
2018-04-13T13:02:17.348Z,18.10
2018-04-13T13:04:44.837Z,18.10
2018-04-13T13:07:12.276Z,18.20
2018-04-13T13:09:39.709Z,18.20
2018-04-13T13:12:07.157Z,18.30
2018-04-13T13:14:35.359Z,18.50
2018-04-13T13:17:02.804Z,18.50
2018-04-13T13:19:30.248Z,18.60
2018-04-13T13:21:58.457Z,18.90
2018-04-13T13:24:25.903Z,18.80
2018-04-13T13:26:53.336Z,18.90
2018-04-13T13:29:21.541Z,19.10
2018-04-13T13:31:48.981Z,19.10
2018-04-13T13:34:16.769Z,19.20
2018-04-13T13:36:44.208Z,19.40
2018-04-13T13:39:11.633Z,19.50
2018-04-13T13:41:39.854Z,20.00
2018-04-13T13:44:07.301Z,19.90
2018-04-13T13:46:34.733Z,20.00
2018-04-13T13:49:02.181Z,20.00
2018-04-13T13:51:30.378Z,19.90
2018-04-13T13:53:57.816Z,19.80
2018-04-13T13:56:26.039Z,19.70
2018-04-13T13:58:53.477Z,19.70
2018-04-13T14:01:20.957Z,19.60
2018-04-13T14:03:48.392Z,19.60
2018-04-13T14:06:15.844Z,19.60
2018-04-13T14:08:43.288Z,19.60
2018-04-13T14:11:10.742Z,19.70
2018-04-13T14:13:38.177Z,19.20
2018-04-13T14:16:06.398Z,18.70
2018-04-13T14:18:33.872Z,18.70
2018-04-13T14:21:01.297Z,18.70
2018-04-13T14:23:28.736Z,18.30
2018-04-13T14:25:56.938Z,18.10
2018-04-13T14:28:24.365Z,18.00
2018-04-13T14:30:51.807Z,18.20
2018-04-13T14:33:20.045Z,18.20
2018-04-13T14:35:47.467Z,18.20
2018-04-13T14:38:14.900Z,18.20
2018-04-13T14:40:43.105Z,18.20
2018-04-13T14:43:10.534Z,18.10
2018-04-13T14:45:39.061Z,17.60
2018-04-13T14:48:06.490Z,17.60
2018-04-13T14:50:33.917Z,17.50
2018-04-13T14:53:02.131Z,17.10
2018-04-13T14:55:29.561Z,17.00
2018-04-13T14:57:57.771Z,17.00
2018-04-13T15:00:25.197Z,17.00
2018-04-13T15:02:52.646Z,17.00
2018-04-13T15:05:20.973Z,17.00
2018-04-13T15:07:48.402Z,16.90
2018-04-13T15:10:15.842Z,16.90
2018-04-13T15:12:44.049Z,16.80
2018-04-13T15:15:11.516Z,16.80
2018-04-13T15:17:39.002Z,16.80
2018-04-13T15:20:07.930Z,16.80
2018-04-13T15:22:35.374Z,16.80
2018-04-13T15:25:03.574Z,16.60
2018-04-13T15:27:31.028Z,16.50
2018-04-13T15:29:58.457Z,16.50
2018-04-13T15:32:26.900Z,16.50
2018-04-13T15:34:54.328Z,16.40
2018-04-13T15:37:21.774Z,16.40
2018-04-13T15:39:49.209Z,16.30
2018-04-13T15:42:17.405Z,16.10
2018-04-13T15:44:44.829Z,16.00
2018-04-13T15:47:13.056Z,15.80
2018-04-13T15:49:40.484Z,15.80
2018-04-13T15:52:07.916Z,15.80
2018-04-13T15:54:36.137Z,15.70
2018-04-13T15:57:03.561Z,15.70
2018-04-13T15:59:31.052Z,15.60
2018-04-13T16:01:58.500Z,15.60
2018-04-13T16:04:25.948Z,15.60
2018-04-13T16:06:53.383Z,15.70
2018-04-13T16:09:21.604Z,15.80
2018-04-13T16:11:49.039Z,15.70
2018-04-13T16:14:17.096Z,15.60
2018-04-13T16:16:44.528Z,15.50
2018-04-13T16:19:12.744Z,15.30
2018-04-13T16:21:40.188Z,15.30
2018-04-13T16:24:07.795Z,15.20
2018-04-13T16:26:35.220Z,15.10
2018-04-13T16:29:02.672Z,15.00
2018-04-13T16:31:30.129Z,15.00
2018-04-13T16:33:57.576Z,15.00
2018-04-13T16:36:25.012Z,14.90
2018-04-13T16:38:53.449Z,14.90
2018-04-13T16:41:20.881Z,14.80
2018-04-13T16:43:48.330Z,15.00
2018-04-13T16:46:15.779Z,15.00
2018-04-13T16:48:43.209Z,15.10
2018-04-13T16:51:11.420Z,14.90
2018-04-13T16:53:38.852Z,14.90
2018-04-13T16:56:06.690Z,14.90
2018-04-13T16:58:34.895Z,14.90
2018-04-13T17:01:03.091Z,14.90
2018-04-13T17:03:30.531Z,14.90
2018-04-13T17:05:57.957Z,14.80
2018-04-13T17:08:25.644Z,14.70
2018-04-13T17:10:53.082Z,14.50
2018-04-13T17:13:21.285Z,14.20
2018-04-13T17:15:48.737Z,14.20
2018-04-13T17:18:16.188Z,14.20
2018-04-13T17:20:43.656Z,14.20
2018-04-13T17:23:11.104Z,14.20
2018-04-13T17:25:38.596Z,14.00
2018-04-13T17:28:06.035Z,13.90
2018-04-13T17:30:33.511Z,13.80
2018-04-13T17:33:00.937Z,13.70
2018-04-13T17:35:28.611Z,13.60
2018-04-13T17:37:56.070Z,13.60
2018-04-13T17:40:23.504Z,13.40
2018-04-13T17:42:51.703Z,13.20
2018-04-13T17:45:19.135Z,13.10
2018-04-13T17:47:46.732Z,13.20
2018-04-13T17:50:14.161Z,13.40
2018-04-13T17:52:41.597Z,13.40
2018-04-13T17:55:09.821Z,13.40
2018-04-13T17:57:37.245Z,13.40
2018-04-13T18:00:04.735Z,13.50
2018-04-13T18:02:32.181Z,13.50
2018-04-13T18:04:59.740Z,13.40
2018-04-13T18:07:27.182Z,13.30
2018-04-13T18:09:54.773Z,13.20
2018-04-13T18:12:22.306Z,13.10
2018-04-13T18:14:49.765Z,13.10
2018-04-13T18:17:17.423Z,13.20
2018-04-13T18:19:44.848Z,13.20
2018-04-13T18:22:13.055Z,13.30
2018-04-13T18:24:40.614Z,13.20
2018-04-13T18:27:08.072Z,13.30
2018-04-13T18:29:35.518Z,13.40
2018-04-13T18:32:02.977Z,13.30
2018-04-13T18:34:30.389Z,13.30
2018-04-13T18:36:57.839Z,13.30
2018-04-13T18:39:25.295Z,13.20
2018-04-13T18:41:52.733Z,13.20
2018-04-13T18:44:20.170Z,13.20
2018-04-13T18:46:47.635Z,13.20
2018-04-13T18:49:15.064Z,13.20
2018-04-13T18:51:42.983Z,13.20
2018-04-13T18:54:11.936Z,13.10
2018-04-13T18:56:39.400Z,13.10
2018-04-13T18:59:06.832Z,13.10
2018-04-13T19:01:34.447Z,13.10
2018-04-13T19:04:01.889Z,13.10
2018-04-13T19:06:29.328Z,13.00
2018-04-13T19:08:56.772Z,13.00
2018-04-13T19:11:24.194Z,13.10
2018-04-13T19:13:51.696Z,13.20
2018-04-13T19:16:19.985Z,13.20
2018-04-13T19:18:47.430Z,13.10
2018-04-13T19:21:14.878Z,13.10
2018-04-13T19:23:42.379Z,13.10
2018-04-13T19:26:10.091Z,13.10
2018-04-13T19:28:37.459Z,13.10
2018-04-13T19:31:04.896Z,13.00
2018-04-13T19:33:33.121Z,13.00
2018-04-13T19:36:00.548Z,13.00
2018-04-13T19:38:27.994Z,13.00
2018-04-13T19:40:55.425Z,13.00
2018-04-13T19:43:23.636Z,12.90
2018-04-13T19:45:51.076Z,12.80
2018-04-13T19:48:18.669Z,12.90
2018-04-13T19:50:46.108Z,12.90
2018-04-13T19:53:13.562Z,12.90
2018-04-13T19:55:41.044Z,12.80
2018-04-13T19:58:08.561Z,12.80
2018-04-13T20:00:35.985Z,12.90
2018-04-13T20:03:03.424Z,12.80
2018-04-13T20:05:30.861Z,12.90
2018-04-13T20:07:58.308Z,12.90
2018-04-13T20:10:25.729Z,12.90
2018-04-13T20:12:53.939Z,12.90
2018-04-13T20:15:25.078Z,12.90
2018-04-13T20:17:52.550Z,12.90
2018-04-13T20:20:19.977Z,12.90
2018-04-13T20:22:47.432Z,13.00
2018-04-13T20:25:14.860Z,13.00
2018-04-13T20:27:43.106Z,13.00
2018-04-13T20:30:10.675Z,12.90
2018-04-13T20:32:38.319Z,12.90
2018-04-13T20:35:05.775Z,13.00
2018-04-13T20:37:33.321Z,13.00
2018-04-13T20:40:00.773Z,13.00
2018-04-13T20:42:28.201Z,13.10
2018-04-13T20:44:56.729Z,13.00
2018-04-13T20:47:24.152Z,13.00
2018-04-13T20:49:51.588Z,13.00
2018-04-13T20:52:19.805Z,13.00
2018-04-13T20:54:47.226Z,12.90
2018-04-13T20:57:15.544Z,13.00
2018-04-13T20:59:42.987Z,12.90
2018-04-13T21:02:10.418Z,13.00
2018-04-13T21:04:38.750Z,13.00
2018-04-13T21:07:06.193Z,12.90
2018-04-13T21:09:33.617Z,13.00
2018-04-13T21:12:01.060Z,13.00
2018-04-13T21:14:29.260Z,13.00
2018-04-13T21:16:56.720Z,12.90
2018-04-13T21:19:24.173Z,13.00
2018-04-13T21:21:51.600Z,13.00
2018-04-13T21:24:19.803Z,12.90
2018-04-13T21:26:47.256Z,12.80
2018-04-13T21:29:14.680Z,12.90
2018-04-13T21:31:42.901Z,12.90
2018-04-13T21:34:10.362Z,12.90
2018-04-13T21:36:37.789Z,12.90
2018-04-13T21:39:06.061Z,12.90
2018-04-13T21:41:33.507Z,13.00
2018-04-13T21:44:01.701Z,12.90
2018-04-13T21:46:29.154Z,12.90
2018-04-13T21:48:56.580Z,12.90
2018-04-13T21:51:24.057Z,12.90
2018-04-13T21:53:52.273Z,12.90
2018-04-13T21:56:19.696Z,12.80
2018-04-13T21:58:47.121Z,12.90
2018-04-13T22:01:14.561Z,12.90
2018-04-13T22:03:42.118Z,12.80
2018-04-13T22:06:09.572Z,12.80
2018-04-13T22:08:37.022Z,12.70
2018-04-13T22:11:04.501Z,12.50
2018-04-13T22:13:31.932Z,12.40
2018-04-13T22:15:59.365Z,12.20
2018-04-13T22:18:27.158Z,12.20
2018-04-13T22:20:54.588Z,12.10
2018-04-13T22:23:22.020Z,12.10
2018-04-13T22:25:49.464Z,12.10
2018-04-13T22:28:17.674Z,12.10
2018-04-13T22:30:45.108Z,12.00
2018-04-13T22:33:12.551Z,12.10
2018-04-13T22:35:40.747Z,12.00
2018-04-13T22:38:08.188Z,12.00
2018-04-13T22:40:36.616Z,11.90
2018-04-13T22:43:04.052Z,11.90
2018-04-13T22:45:31.476Z,11.90
2018-04-13T22:47:59.697Z,11.70
2018-04-13T22:50:27.128Z,11.60
2018-04-13T22:52:54.569Z,11.70
2018-04-13T22:55:22.782Z,11.70
2018-04-13T22:57:50.212Z,11.60
2018-04-13T23:00:17.652Z,11.70
2018-04-13T23:02:45.857Z,11.50
2018-04-13T23:05:13.296Z,11.50
2018-04-13T23:07:40.736Z,11.40
2018-04-13T23:10:08.945Z,11.30
2018-04-13T23:12:36.392Z,11.30
2018-04-13T23:15:03.824Z,11.30
2018-04-13T23:17:32.036Z,11.20
2018-04-13T23:19:59.468Z,11.20
2018-04-13T23:22:37.924Z,11.20
2018-04-13T23:25:05.371Z,11.20
2018-04-13T23:27:32.812Z,11.00
2018-04-13T23:30:00.271Z,10.90
2018-04-13T23:32:27.956Z,11.00
2018-04-13T23:34:55.392Z,10.90
2018-04-13T23:37:22.868Z,10.80
2018-04-13T23:39:50.293Z,10.70
2018-04-13T23:42:17.755Z,10.80
2018-04-13T23:44:45.190Z,10.80
2018-04-13T23:47:13.397Z,10.90
2018-04-13T23:49:40.837Z,10.80
2018-04-13T23:52:08.280Z,10.80
2018-04-13T23:54:36.085Z,10.90
2018-04-13T23:57:03.533Z,10.80
2018-04-13T23:59:30.984Z,10.90
